sensor_id;sensor_type;location;lat;lon;timestamp;pressure;altitude;pressure_sealevel;temperature;humidity
81913;BME280;71377;50.698;7.164;2024-03-02T00:00:27;99528.66;;;8.93;71.30
81913;BME280;71377;50.698;7.164;2024-03-02T00:02:53;99527.44;;;9.00;70.37
81913;BME280;71377;50.698;7.164;2024-03-02T00:05:21;99530.72;;;9.05;71.16
81913;BME280;71377;50.698;7.164;2024-03-02T00:10:20;99529.44;;;8.95;71.61
81913;BME280;71377;50.698;7.164;2024-03-02T00:12:49;99538.16;;;8.95;71.40
81913;BME280;71377;50.698;7.164;2024-03-02T00:17:45;99529.72;;;9.07;70.11
81913;BME280;71377;50.698;7.164;2024-03-02T00:20:17;99524.56;;;9.06;70.64
81913;BME280;71377;50.698;7.164;2024-03-02T00:22:47;99522.22;;;9.00;70.87
81913;BME280;71377;50.698;7.164;2024-03-02T00:25:16;99519.81;;;9.14;70.60
81913;BME280;71377;50.698;7.164;2024-03-02T00:27:47;99517.72;;;9.21;69.76
81913;BME280;71377;50.698;7.164;2024-03-02T00:30:43;99507.22;;;9.03;70.09
81913;BME280;71377;50.698;7.164;2024-03-02T00:33:12;99510.59;;;9.05;69.80
81913;BME280;71377;50.698;7.164;2024-03-02T00:35:39;99506.06;;;9.09;70.31
81913;BME280;71377;50.698;7.164;2024-03-02T00:38:06;99499.41;;;9.02;70.66
81913;BME280;71377;50.698;7.164;2024-03-02T00:40:32;99503.94;;;9.17;69.38
81913;BME280;71377;50.698;7.164;2024-03-02T00:42:59;99492.06;;;9.27;68.97
81913;BME280;71377;50.698;7.164;2024-03-02T00:45:26;99496.00;;;9.19;69.00
81913;BME280;71377;50.698;7.164;2024-03-02T00:47:52;99493.97;;;9.06;69.24
81913;BME280;71377;50.698;7.164;2024-03-02T00:50:19;99492.03;;;9.10;69.88
81913;BME280;71377;50.698;7.164;2024-03-02T00:52:56;99490.34;;;9.09;69.43
81913;BME280;71377;50.698;7.164;2024-03-02T00:55:22;99491.00;;;8.95;70.07
81913;BME280;71377;50.698;7.164;2024-03-02T00:57:49;99489.38;;;8.93;69.58
81913;BME280;71377;50.698;7.164;2024-03-02T01:00:15;99498.31;;;8.89;69.70
81913;BME280;71377;50.698;7.164;2024-03-02T01:02:44;99491.66;;;8.82;70.36
81913;BME280;71377;50.698;7.164;2024-03-02T01:05:12;99487.56;;;8.95;69.76
81913;BME280;71377;50.698;7.164;2024-03-02T01:07:38;99487.69;;;8.92;69.63
81913;BME280;71377;50.698;7.164;2024-03-02T01:10:05;99487.69;;;8.92;68.79
81913;BME280;71377;50.698;7.164;2024-03-02T01:12:31;99488.16;;;9.00;68.97
81913;BME280;71377;50.698;7.164;2024-03-02T01:14:58;99487.25;;;9.01;68.57
81913;BME280;71377;50.698;7.164;2024-03-02T01:17:24;99487.34;;;8.81;69.92
81913;BME280;71377;50.698;7.164;2024-03-02T01:19:51;99483.78;;;8.82;69.40
81913;BME280;71377;50.698;7.164;2024-03-02T01:22:17;99493.84;;;8.91;69.28
81913;BME280;71377;50.698;7.164;2024-03-02T01:24:46;99485.22;;;8.89;69.17
81913;BME280;71377;50.698;7.164;2024-03-02T01:27:12;99477.72;;;8.81;69.42
81913;BME280;71377;50.698;7.164;2024-03-02T01:29:38;99479.69;;;8.76;69.40
81913;BME280;71377;50.698;7.164;2024-03-02T01:32:05;99474.09;;;8.84;69.47
81913;BME280;71377;50.698;7.164;2024-03-02T01:34:32;99476.19;;;8.94;68.72
81913;BME280;71377;50.698;7.164;2024-03-02T01:36:58;99474.50;;;8.93;68.70
81913;BME280;71377;50.698;7.164;2024-03-02T01:39:24;99469.69;;;8.84;69.24
81913;BME280;71377;50.698;7.164;2024-03-02T01:41:51;99470.13;;;8.75;68.98
81913;BME280;71377;50.698;7.164;2024-03-02T01:44:17;99474.94;;;8.65;69.64
81913;BME280;71377;50.698;7.164;2024-03-02T01:46:44;99464.91;;;8.75;69.40
81913;BME280;71377;50.698;7.164;2024-03-02T01:49:10;99459.97;;;8.69;69.10
81913;BME280;71377;50.698;7.164;2024-03-02T01:51:36;99463.22;;;8.55;70.10
81913;BME280;71377;50.698;7.164;2024-03-02T01:54:03;99464.47;;;8.65;69.77
81913;BME280;71377;50.698;7.164;2024-03-02T01:56:29;99459.91;;;8.52;71.15
81913;BME280;71377;50.698;7.164;2024-03-02T01:58:56;99458.69;;;8.77;69.06
81913;BME280;71377;50.698;7.164;2024-03-02T02:01:22;99462.50;;;8.52;70.27
81913;BME280;71377;50.698;7.164;2024-03-02T02:03:49;99461.94;;;8.64;70.07
81913;BME280;71377;50.698;7.164;2024-03-02T02:06:15;99459.44;;;8.42;71.37
81913;BME280;71377;50.698;7.164;2024-03-02T02:08:42;99464.47;;;8.46;70.14
81913;BME280;71377;50.698;7.164;2024-03-02T02:11:08;99465.75;;;8.38;70.30
81913;BME280;71377;50.698;7.164;2024-03-02T02:13:35;99461.94;;;8.45;70.51
81913;BME280;71377;50.698;7.164;2024-03-02T02:16:07;99461.78;;;8.48;69.93
81913;BME280;71377;50.698;7.164;2024-03-02T02:18:34;99455.72;;;8.47;70.16
81913;BME280;71377;50.698;7.164;2024-03-02T02:21:02;99449.03;;;8.40;69.98
81913;BME280;71377;50.698;7.164;2024-03-02T02:23:29;99448.09;;;8.43;70.26
81913;BME280;71377;50.698;7.164;2024-03-02T02:25:56;99451.59;;;8.42;70.54
81913;BME280;71377;50.698;7.164;2024-03-02T02:28:22;99430.47;;;8.46;69.51
81913;BME280;71377;50.698;7.164;2024-03-02T02:30:51;99441.69;;;8.48;69.62
81913;BME280;71377;50.698;7.164;2024-03-02T02:33:18;99429.19;;;8.55;69.86
81913;BME280;71377;50.698;7.164;2024-03-02T02:35:44;99437.53;;;8.44;70.15
81913;BME280;71377;50.698;7.164;2024-03-02T02:38:11;99436.56;;;8.27;70.67
81913;BME280;71377;50.698;7.164;2024-03-02T02:40:37;99433.16;;;8.25;70.68
81913;BME280;71377;50.698;7.164;2024-03-02T02:43:03;99435.03;;;8.41;70.27
81913;BME280;71377;50.698;7.164;2024-03-02T02:45:30;99423.19;;;8.53;69.62
81913;BME280;71377;50.698;7.164;2024-03-02T02:47:57;99418.66;;;8.38;70.40
81913;BME280;71377;50.698;7.164;2024-03-02T02:50:23;99434.34;;;8.38;70.51
81913;BME280;71377;50.698;7.164;2024-03-02T02:52:49;99431.88;;;8.33;69.82
81913;BME280;71377;50.698;7.164;2024-03-02T02:55:16;99427.81;;;8.28;70.70
81913;BME280;71377;50.698;7.164;2024-03-02T02:57:43;99424.69;;;8.19;71.22
81913;BME280;71377;50.698;7.164;2024-03-02T03:00:11;99423.53;;;8.25;70.68
81913;BME280;71377;50.698;7.164;2024-03-02T03:02:44;99429.47;;;8.10;72.05
81913;BME280;71377;50.698;7.164;2024-03-02T03:05:13;99440.22;;;8.04;72.06
81913;BME280;71377;50.698;7.164;2024-03-02T03:07:40;99439.09;;;8.09;71.71
81913;BME280;71377;50.698;7.164;2024-03-02T03:10:07;99432.66;;;8.16;71.69
81913;BME280;71377;50.698;7.164;2024-03-02T03:12:34;99441.75;;;8.08;71.88
81913;BME280;71377;50.698;7.164;2024-03-02T03:15:02;99437.63;;;8.22;71.76
81913;BME280;71377;50.698;7.164;2024-03-02T03:17:29;99442.50;;;8.11;72.37
81913;BME280;71377;50.698;7.164;2024-03-02T03:19:55;99441.75;;;8.08;72.84
81913;BME280;71377;50.698;7.164;2024-03-02T03:22:22;99439.88;;;8.11;72.58
81913;BME280;71377;50.698;7.164;2024-03-02T03:24:48;99442.25;;;8.16;71.88
81913;BME280;71377;50.698;7.164;2024-03-02T03:27:15;99437.97;;;8.15;72.56
81913;BME280;71377;50.698;7.164;2024-03-02T03:29:41;99442.22;;;8.17;72.19
81913;BME280;71377;50.698;7.164;2024-03-02T03:32:08;99435.56;;;8.10;72.57
81913;BME280;71377;50.698;7.164;2024-03-02T03:34:34;99440.91;;;8.07;72.94
81913;BME280;71377;50.698;7.164;2024-03-02T03:37:02;99441.91;;;8.05;73.08
81913;BME280;71377;50.698;7.164;2024-03-02T03:39:28;99436.53;;;8.08;72.94
81913;BME280;71377;50.698;7.164;2024-03-02T03:41:55;99445.28;;;8.27;73.09
81913;BME280;71377;50.698;7.164;2024-03-02T03:44:21;99448.41;;;8.15;72.75
81913;BME280;71377;50.698;7.164;2024-03-02T03:46:48;99450.13;;;8.16;72.64
81913;BME280;71377;50.698;7.164;2024-03-02T03:49:14;99452.28;;;8.27;72.17
81913;BME280;71377;50.698;7.164;2024-03-02T03:51:41;99452.28;;;8.27;73.14
81913;BME280;71377;50.698;7.164;2024-03-02T03:54:07;99445.47;;;8.22;72.46
81913;BME280;71377;50.698;7.164;2024-03-02T03:56:34;99448.66;;;8.29;72.55
81913;BME280;71377;50.698;7.164;2024-03-02T03:59:00;99450.28;;;8.32;72.11
81913;BME280;71377;50.698;7.164;2024-03-02T04:01:27;99449.66;;;8.27;72.66
81913;BME280;71377;50.698;7.164;2024-03-02T04:03:53;99434.72;;;8.29;72.83
81913;BME280;71377;50.698;7.164;2024-03-02T04:06:20;99441.81;;;8.27;72.61
81913;BME280;71377;50.698;7.164;2024-03-02T04:08:46;99445.25;;;8.08;73.33
81913;BME280;71377;50.698;7.164;2024-03-02T04:11:12;99448.91;;;8.04;73.67
81913;BME280;71377;50.698;7.164;2024-03-02T04:13:39;99451.50;;;8.04;74.35
81913;BME280;71377;50.698;7.164;2024-03-02T04:16:06;99446.25;;;7.85;74.81
81913;BME280;71377;50.698;7.164;2024-03-02T04:18:32;99443.56;;;7.87;74.90
81913;BME280;71377;50.698;7.164;2024-03-02T04:20:58;99452.84;;;7.94;74.51
81913;BME280;71377;50.698;7.164;2024-03-02T04:23:26;99451.88;;;7.76;75.04
81913;BME280;71377;50.698;7.164;2024-03-02T04:25:52;99447.41;;;7.78;75.34
81913;BME280;71377;50.698;7.164;2024-03-02T04:28:19;99448.59;;;7.71;75.09
81913;BME280;71377;50.698;7.164;2024-03-02T04:30:45;99456.09;;;7.79;75.21
81913;BME280;71377;50.698;7.164;2024-03-02T04:33:11;99449.72;;;7.65;75.55
81913;BME280;71377;50.698;7.164;2024-03-02T04:35:38;99461.81;;;7.68;75.96
81913;BME280;71377;50.698;7.164;2024-03-02T04:38:05;99464.59;;;7.63;75.96
81913;BME280;71377;50.698;7.164;2024-03-02T04:40:31;99469.03;;;7.61;76.34
81913;BME280;71377;50.698;7.164;2024-03-02T04:42:58;99467.22;;;7.63;76.35
81913;BME280;71377;50.698;7.164;2024-03-02T04:45:25;99478.84;;;7.56;76.57
81913;BME280;71377;50.698;7.164;2024-03-02T04:47:52;99472.28;;;7.46;76.75
81913;BME280;71377;50.698;7.164;2024-03-02T04:50:18;99488.25;;;7.60;76.79
81913;BME280;71377;50.698;7.164;2024-03-02T04:52:45;99484.34;;;7.71;75.91
81913;BME280;71377;50.698;7.164;2024-03-02T04:55:11;99493.16;;;7.88;74.44
81913;BME280;71377;50.698;7.164;2024-03-02T04:57:53;99496.63;;;7.89;74.37
81913;BME280;71377;50.698;7.164;2024-03-02T05:00:22;99501.53;;;7.97;74.64
81913;BME280;71377;50.698;7.164;2024-03-02T05:02:49;99506.06;;;7.93;74.51
81913;BME280;71377;50.698;7.164;2024-03-02T05:05:15;99500.38;;;7.83;74.81
81913;BME280;71377;50.698;7.164;2024-03-02T05:07:42;99502.25;;;7.80;75.42
81913;BME280;71377;50.698;7.164;2024-03-02T05:10:10;99500.53;;;7.79;75.80
81913;BME280;71377;50.698;7.164;2024-03-02T05:12:38;99505.19;;;7.72;75.87
81913;BME280;71377;50.698;7.164;2024-03-02T05:15:14;99505.13;;;7.74;76.73
81913;BME280;71377;50.698;7.164;2024-03-02T05:17:41;99504.16;;;7.76;76.73
81913;BME280;71377;50.698;7.164;2024-03-02T05:20:11;99512.06;;;7.95;75.66
81913;BME280;71377;50.698;7.164;2024-03-02T05:22:38;99497.28;;;7.74;76.20
81913;BME280;71377;50.698;7.164;2024-03-02T05:25:06;99500.94;;;7.90;76.14
81913;BME280;71377;50.698;7.164;2024-03-02T05:27:33;99500.81;;;7.93;75.52
81913;BME280;71377;50.698;7.164;2024-03-02T05:30:00;99497.53;;;7.88;75.16
81913;BME280;71377;50.698;7.164;2024-03-02T05:32:26;99505.78;;;7.79;75.76
81913;BME280;71377;50.698;7.164;2024-03-02T05:34:53;99502.38;;;7.77;76.20
81913;BME280;71377;50.698;7.164;2024-03-02T05:37:20;99500.75;;;7.74;76.19
81913;BME280;71377;50.698;7.164;2024-03-02T05:39:46;99497.41;;;7.71;76.64
81913;BME280;71377;50.698;7.164;2024-03-02T05:42:13;99501.06;;;7.67;76.60
81913;BME280;71377;50.698;7.164;2024-03-02T05:44:39;99503.94;;;7.60;76.72
81913;BME280;71377;50.698;7.164;2024-03-02T05:47:06;99502.69;;;7.69;76.55
81913;BME280;71377;50.698;7.164;2024-03-02T05:49:35;99506.00;;;7.52;76.84
81913;BME280;71377;50.698;7.164;2024-03-02T05:52:01;99505.63;;;7.61;76.53
81913;BME280;71377;50.698;7.164;2024-03-02T05:54:28;99509.41;;;7.54;76.78
81913;BME280;71377;50.698;7.164;2024-03-02T05:56:55;99514.25;;;7.63;76.44
81913;BME280;71377;50.698;7.164;2024-03-02T05:59:21;99521.69;;;7.52;76.68
81913;BME280;71377;50.698;7.164;2024-03-02T06:01:48;99522.28;;;7.59;75.47
81913;BME280;71377;50.698;7.164;2024-03-02T06:04:16;99530.81;;;7.42;76.73
81913;BME280;71377;50.698;7.164;2024-03-02T06:06:43;99529.22;;;7.38;77.25
81913;BME280;71377;50.698;7.164;2024-03-02T06:09:10;99530.84;;;7.62;76.46
81913;BME280;71377;50.698;7.164;2024-03-02T06:11:40;99529.59;;;7.51;76.23
81913;BME280;71377;50.698;7.164;2024-03-02T06:14:08;99525.38;;;7.47;76.94
81913;BME280;71377;50.698;7.164;2024-03-02T06:16:35;99529.16;;;7.61;76.11
81913;BME280;71377;50.698;7.164;2024-03-02T06:19:01;99529.94;;;7.63;76.29
81913;BME280;71377;50.698;7.164;2024-03-02T06:21:28;99532.91;;;7.54;75.54
81913;BME280;71377;50.698;7.164;2024-03-02T06:23:55;99525.38;;;7.47;76.24
81913;BME280;71377;50.698;7.164;2024-03-02T06:26:21;99529.72;;;7.48;76.63
81913;BME280;71377;50.698;7.164;2024-03-02T06:28:51;99530.38;;;7.53;76.51
81913;BME280;71377;50.698;7.164;2024-03-02T06:31:18;99530.56;;;7.48;77.36
81913;BME280;71377;50.698;7.164;2024-03-02T06:33:44;99531.34;;;7.50;77.86
81913;BME280;71377;50.698;7.164;2024-03-02T06:36:10;99528.38;;;7.37;78.33
81913;BME280;71377;50.698;7.164;2024-03-02T06:38:38;99537.03;;;7.40;78.36
81913;BME280;71377;50.698;7.164;2024-03-02T06:41:09;99543.94;;;7.41;78.58
81913;BME280;71377;50.698;7.164;2024-03-02T06:43:35;99545.72;;;7.40;78.30
81913;BME280;71377;50.698;7.164;2024-03-02T06:46:01;99550.66;;;7.46;78.82
81913;BME280;71377;50.698;7.164;2024-03-02T06:48:28;99547.94;;;7.49;78.21
81913;BME280;71377;50.698;7.164;2024-03-02T06:50:56;99539.75;;;7.58;78.22
81913;BME280;71377;50.698;7.164;2024-03-02T06:53:23;99536.13;;;7.61;78.57
81913;BME280;71377;50.698;7.164;2024-03-02T06:55:50;99532.31;;;7.70;77.87
81913;BME280;71377;50.698;7.164;2024-03-02T06:58:16;99531.38;;;7.71;78.07
81913;BME280;71377;50.698;7.164;2024-03-02T07:00:42;99527.59;;;7.78;78.79
81913;BME280;71377;50.698;7.164;2024-03-02T07:03:10;99524.53;;;7.68;78.85
81913;BME280;71377;50.698;7.164;2024-03-02T07:05:36;99536.81;;;7.66;78.79
81913;BME280;71377;50.698;7.164;2024-03-02T07:08:03;99529.69;;;7.70;77.83
81913;BME280;71377;50.698;7.164;2024-03-02T07:10:31;99532.44;;;7.67;78.44
81913;BME280;71377;50.698;7.164;2024-03-02T07:12:57;99536.50;;;7.74;77.58
81913;BME280;71377;50.698;7.164;2024-03-02T07:15:26;99531.66;;;7.85;76.79
81913;BME280;71377;50.698;7.164;2024-03-02T07:17:53;99542.50;;;7.96;75.99
81913;BME280;71377;50.698;7.164;2024-03-02T07:20:19;99553.13;;;7.93;76.20
81913;BME280;71377;50.698;7.164;2024-03-02T07:22:46;99553.19;;;7.91;75.82
81913;BME280;71377;50.698;7.164;2024-03-02T07:25:12;99561.34;;;8.04;75.54
81913;BME280;71377;50.698;7.164;2024-03-02T07:27:41;99571.56;;;8.10;75.03
81913;BME280;71377;50.698;7.164;2024-03-02T07:30:13;99577.97;;;8.23;73.73
81913;BME280;71377;50.698;7.164;2024-03-02T07:32:40;99585.03;;;8.42;74.46
81913;BME280;71377;50.698;7.164;2024-03-02T07:35:08;99579.16;;;8.57;75.20
81913;BME280;71377;50.698;7.164;2024-03-02T07:37:34;99577.69;;;8.70;73.29
81913;BME280;71377;50.698;7.164;2024-03-02T07:40:01;99576.97;;;8.86;72.72
81913;BME280;71377;50.698;7.164;2024-03-02T07:42:27;99580.69;;;9.19;71.10
81913;BME280;71377;50.698;7.164;2024-03-02T07:44:54;99586.50;;;9.07;70.64
81913;BME280;71377;50.698;7.164;2024-03-02T07:47:20;99579.84;;;9.00;70.61
81913;BME280;71377;50.698;7.164;2024-03-02T07:49:47;99577.56;;;8.92;70.38
81913;BME280;71377;50.698;7.164;2024-03-02T07:52:13;99570.78;;;8.88;71.18
81913;BME280;71377;50.698;7.164;2024-03-02T07:54:40;99560.56;;;8.82;71.63
81913;BME280;71377;50.698;7.164;2024-03-02T07:57:06;99567.94;;;8.74;73.54
81913;BME280;71377;50.698;7.164;2024-03-02T07:59:32;99568.25;;;8.66;74.16
81913;BME280;71377;50.698;7.164;2024-03-02T08:01:59;99566.38;;;8.70;73.43
81913;BME280;71377;50.698;7.164;2024-03-02T08:04:26;99569.78;;;8.91;72.03
81913;BME280;71377;50.698;7.164;2024-03-02T08:06:55;99582.94;;;9.08;70.81
81913;BME280;71377;50.698;7.164;2024-03-02T08:09:22;99579.75;;;9.20;70.16
81913;BME280;71377;50.698;7.164;2024-03-02T08:11:48;99580.13;;;9.31;70.56
81913;BME280;71377;50.698;7.164;2024-03-02T08:14:15;99574.28;;;9.44;69.62
81913;BME280;71377;50.698;7.164;2024-03-02T08:16:41;99583.19;;;9.58;68.25
81913;BME280;71377;50.698;7.164;2024-03-02T08:19:08;99582.91;;;9.65;68.01
81913;BME280;71377;50.698;7.164;2024-03-02T08:21:35;99582.78;;;9.85;67.70
81913;BME280;71377;50.698;7.164;2024-03-02T08:24:02;99586.56;;;10.14;66.06
81913;BME280;71377;50.698;7.164;2024-03-02T08:26:28;99590.28;;;10.10;66.19
81913;BME280;71377;50.698;7.164;2024-03-02T08:28:58;99594.81;;;10.06;66.17
81913;BME280;71377;50.698;7.164;2024-03-02T08:31:25;99595.56;;;10.27;65.67
81913;BME280;71377;50.698;7.164;2024-03-02T08:33:51;99593.06;;;10.24;65.57
81913;BME280;71377;50.698;7.164;2024-03-02T08:36:18;99585.34;;;10.38;64.93
81913;BME280;71377;50.698;7.164;2024-03-02T08:38:45;99585.91;;;10.28;64.65
81913;BME280;71377;50.698;7.164;2024-03-02T08:41:12;99592.47;;;10.36;64.23
81913;BME280;71377;50.698;7.164;2024-03-02T08:43:43;99596.22;;;10.48;63.99
81913;BME280;71377;50.698;7.164;2024-03-02T08:46:09;99590.66;;;10.54;63.78
81913;BME280;71377;50.698;7.164;2024-03-02T08:48:36;99590.38;;;10.76;63.36
81913;BME280;71377;50.698;7.164;2024-03-02T08:51:03;99598.50;;;10.71;63.11
81913;BME280;71377;50.698;7.164;2024-03-02T08:53:32;99597.00;;;10.83;61.79
81913;BME280;71377;50.698;7.164;2024-03-02T08:55:58;99598.59;;;10.70;62.69
81913;BME280;71377;50.698;7.164;2024-03-02T08:58:28;99592.09;;;10.93;61.80
81913;BME280;71377;50.698;7.164;2024-03-02T09:00:54;99597.34;;;10.93;62.11
81913;BME280;71377;50.698;7.164;2024-03-02T09:03:20;99597.78;;;11.01;60.89
81913;BME280;71377;50.698;7.164;2024-03-02T09:05:47;99596.13;;;11.16;60.79
81913;BME280;71377;50.698;7.164;2024-03-02T09:08:14;99599.44;;;11.03;61.08
81913;BME280;71377;50.698;7.164;2024-03-02T09:10:41;99597.06;;;11.15;60.78
81913;BME280;71377;50.698;7.164;2024-03-02T09:13:07;99588.41;;;11.13;59.84
81913;BME280;71377;50.698;7.164;2024-03-02T09:15:33;99590.78;;;11.17;60.03
81913;BME280;71377;50.698;7.164;2024-03-02T09:18:04;99593.31;;;11.19;60.12
81913;BME280;71377;50.698;7.164;2024-03-02T09:20:30;99589.75;;;11.36;59.20
81913;BME280;71377;50.698;7.164;2024-03-02T09:22:57;99582.47;;;11.25;60.25
81913;BME280;71377;50.698;7.164;2024-03-02T09:25:23;99590.13;;;11.29;59.21
81913;BME280;71377;50.698;7.164;2024-03-02T09:27:51;99585.09;;;11.25;60.03
81913;BME280;71377;50.698;7.164;2024-03-02T09:30:18;99572.13;;;11.38;59.40
81913;BME280;71377;50.698;7.164;2024-03-02T09:32:44;99582.91;;;11.49;59.05
81913;BME280;71377;50.698;7.164;2024-03-02T09:35:13;99580.41;;;11.61;58.68
81913;BME280;71377;50.698;7.164;2024-03-02T09:37:40;99595.88;;;11.68;58.59
81913;BME280;71377;50.698;7.164;2024-03-02T09:40:07;99585.44;;;11.82;57.76
81913;BME280;71377;50.698;7.164;2024-03-02T09:42:33;99594.66;;;11.89;56.97
81913;BME280;71377;50.698;7.164;2024-03-02T09:45:00;99587.75;;;12.02;57.13
81913;BME280;71377;50.698;7.164;2024-03-02T09:47:27;99588.28;;;12.23;56.20
81913;BME280;71377;50.698;7.164;2024-03-02T09:49:54;99596.22;;;12.37;55.99
81913;BME280;71377;50.698;7.164;2024-03-02T09:52:24;99588.63;;;12.47;55.72
81913;BME280;71377;50.698;7.164;2024-03-02T09:54:51;99583.31;;;12.33;55.72
81913;BME280;71377;50.698;7.164;2024-03-02T09:57:17;99583.94;;;12.52;55.56
81913;BME280;71377;50.698;7.164;2024-03-02T09:59:44;99584.38;;;12.59;55.59
81913;BME280;71377;50.698;7.164;2024-03-02T10:02:11;99583.38;;;12.76;54.85
81913;BME280;71377;50.698;7.164;2024-03-02T10:04:38;99589.38;;;12.92;55.54
81913;BME280;71377;50.698;7.164;2024-03-02T10:07:15;99587.44;;;12.95;54.76
81913;BME280;71377;50.698;7.164;2024-03-02T10:09:43;99596.38;;;12.79;55.00
81913;BME280;71377;50.698;7.164;2024-03-02T10:12:11;99588.06;;;12.99;54.53
81913;BME280;71377;50.698;7.164;2024-03-02T10:14:39;99585.63;;;12.96;54.85
81913;BME280;71377;50.698;7.164;2024-03-02T10:17:07;99593.91;;;13.04;55.12
81913;BME280;71377;50.698;7.164;2024-03-02T10:19:34;99594.28;;;13.12;54.19
81913;BME280;71377;50.698;7.164;2024-03-02T10:22:03;99586.91;;;13.17;54.18
81913;BME280;71377;50.698;7.164;2024-03-02T10:24:38;99599.09;;;13.20;54.73
81913;BME280;71377;50.698;7.164;2024-03-02T10:29:39;99588.06;;;12.85;55.18
81913;BME280;71377;50.698;7.164;2024-03-02T10:32:10;99584.13;;;12.92;55.42
81913;BME280;71377;50.698;7.164;2024-03-02T10:34:45;99587.13;;;12.57;56.59
81913;BME280;71377;50.698;7.164;2024-03-02T10:37:12;99575.19;;;12.94;56.05
81913;BME280;71377;50.698;7.164;2024-03-02T10:39:39;99577.13;;;13.34;54.98
81913;BME280;71377;50.698;7.164;2024-03-02T10:42:07;99570.03;;;13.48;54.11
81913;BME280;71377;50.698;7.164;2024-03-02T10:44:34;99563.25;;;13.71;53.27
81913;BME280;71377;50.698;7.164;2024-03-02T10:47:02;99565.75;;;13.60;54.03
81913;BME280;71377;50.698;7.164;2024-03-02T10:49:32;99567.66;;;13.98;52.63
81913;BME280;71377;50.698;7.164;2024-03-02T10:52:00;99563.47;;;14.21;52.02
81913;BME280;71377;50.698;7.164;2024-03-02T10:54:27;99559.78;;;14.23;51.60
81913;BME280;71377;50.698;7.164;2024-03-02T10:56:58;99562.28;;;14.77;50.16
81913;BME280;71377;50.698;7.164;2024-03-02T11:01:55;99556.13;;;14.77;50.17
81913;BME280;71377;50.698;7.164;2024-03-02T11:04:27;99558.25;;;14.72;50.86
81913;BME280;71377;50.698;7.164;2024-03-02T11:07:00;99556.22;;;14.88;50.17
81913;BME280;71377;50.698;7.164;2024-03-02T11:09:29;99552.69;;;15.13;49.02
81913;BME280;71377;50.698;7.164;2024-03-02T11:12:03;99552.72;;;15.00;50.10
81913;BME280;71377;50.698;7.164;2024-03-02T11:14:32;99563.41;;;15.35;49.13
81913;BME280;71377;50.698;7.164;2024-03-02T11:17:02;99565.94;;;15.00;49.37
81913;BME280;71377;50.698;7.164;2024-03-02T11:19:31;99559.28;;;14.82;50.16
81913;BME280;71377;50.698;7.164;2024-03-02T11:21:58;99562.16;;;14.66;50.47
81913;BME280;71377;50.698;7.164;2024-03-02T11:26:53;99554.53;;;14.36;51.21
81913;BME280;71377;50.698;7.164;2024-03-02T11:32:06;99556.56;;;14.45;51.20
81913;BME280;71377;50.698;7.164;2024-03-02T11:34:34;99560.09;;;14.31;52.03
81913;BME280;71377;50.698;7.164;2024-03-02T11:37:02;99567.41;;;14.28;52.58
81913;BME280;71377;50.698;7.164;2024-03-02T11:39:29;99551.66;;;14.39;52.11
81913;BME280;71377;50.698;7.164;2024-03-02T11:41:57;99538.25;;;14.80;50.66
81913;BME280;71377;50.698;7.164;2024-03-02T11:44:28;99529.78;;;14.75;50.39
81913;BME280;71377;50.698;7.164;2024-03-02T11:47:02;99537.31;;;14.56;51.02
81913;BME280;71377;50.698;7.164;2024-03-02T11:49:50;99528.25;;;14.60;50.76
81913;BME280;71377;50.698;7.164;2024-03-02T11:52:18;99534.44;;;14.97;50.20
81913;BME280;71377;50.698;7.164;2024-03-02T11:54:46;99546.63;;;14.87;50.44
81913;BME280;71377;50.698;7.164;2024-03-02T11:57:14;99538.59;;;14.50;51.25
81913;BME280;71377;50.698;7.164;2024-03-02T11:59:42;99538.91;;;14.46;51.73
81913;BME280;71377;50.698;7.164;2024-03-02T12:02:17;99533.00;;;14.55;51.86
81913;BME280;71377;50.698;7.164;2024-03-02T12:04:44;99535.63;;;14.55;51.86
81913;BME280;71377;50.698;7.164;2024-03-02T12:07:12;99519.88;;;14.66;51.63
81913;BME280;71377;50.698;7.164;2024-03-02T12:09:39;99516.16;;;14.81;51.18
81913;BME280;71377;50.698;7.164;2024-03-02T12:12:07;99504.97;;;14.65;51.30
81913;BME280;71377;50.698;7.164;2024-03-02T12:14:35;99495.72;;;14.96;50.95
81913;BME280;71377;50.698;7.164;2024-03-02T12:17:02;99502.69;;;14.97;50.60
81913;BME280;71377;50.698;7.164;2024-03-02T12:19:30;99501.31;;;14.91;50.52
81913;BME280;71377;50.698;7.164;2024-03-02T12:21:57;99491.75;;;15.02;50.37
81913;BME280;71377;50.698;7.164;2024-03-02T12:24:26;99495.38;;;15.01;50.42
81913;BME280;71377;50.698;7.164;2024-03-02T12:26:52;99500.03;;;14.97;50.43
81913;BME280;71377;50.698;7.164;2024-03-02T12:29:20;99499.09;;;14.85;50.97
81913;BME280;71377;50.698;7.164;2024-03-02T12:31:51;99492.72;;;15.01;50.44
81913;BME280;71377;50.698;7.164;2024-03-02T12:34:21;99483.94;;;15.00;50.03
81913;BME280;71377;50.698;7.164;2024-03-02T12:36:48;99489.78;;;15.29;49.52
81913;BME280;71377;50.698;7.164;2024-03-02T12:39:21;99470.06;;;15.57;48.08
81913;BME280;71377;50.698;7.164;2024-03-02T12:41:50;99473.63;;;15.80;47.56
81913;BME280;71377;50.698;7.164;2024-03-02T12:44:17;99476.16;;;16.28;46.53
81913;BME280;71377;50.698;7.164;2024-03-02T12:46:45;99475.56;;;16.35;45.77
81913;BME280;71377;50.698;7.164;2024-03-02T12:49:13;99480.41;;;16.75;44.99
81913;BME280;71377;50.698;7.164;2024-03-02T12:51:42;99473.28;;;16.76;44.83
81913;BME280;71377;50.698;7.164;2024-03-02T12:54:10;99480.97;;;16.67;45.03
81913;BME280;71377;50.698;7.164;2024-03-02T12:56:37;99475.00;;;16.77;44.58
81913;BME280;71377;50.698;7.164;2024-03-02T12:59:04;99470.75;;;16.52;45.37
81913;BME280;71377;50.698;7.164;2024-03-02T13:01:31;99465.81;;;16.47;45.74
81913;BME280;71377;50.698;7.164;2024-03-02T13:03:58;99463.63;;;16.41;45.72
81913;BME280;71377;50.698;7.164;2024-03-02T13:06:25;99466.03;;;16.33;45.92
81913;BME280;71377;50.698;7.164;2024-03-02T13:08:55;99460.84;;;16.20;46.13
81913;BME280;71377;50.698;7.164;2024-03-02T13:11:22;99461.81;;;16.08;46.05
81913;BME280;71377;50.698;7.164;2024-03-02T13:13:52;99459.75;;;16.00;46.25
81913;BME280;71377;50.698;7.164;2024-03-02T13:16:18;99457.81;;;16.02;46.21
81913;BME280;71377;50.698;7.164;2024-03-02T13:18:55;99448.78;;;16.05;46.34
81913;BME280;71377;50.698;7.164;2024-03-02T13:21:22;99440.84;;;16.05;46.08
81913;BME280;71377;50.698;7.164;2024-03-02T13:23:48;99442.75;;;15.92;46.08